69FD weather

Unicorn Place Airport
Defuniak Springs, Florida, United States

Public forecast

Using degrees Fahrenheit for public forecast. Weather courtesy of forecast.io.

METAR (pilot weather report)

Closest report is Defuniak Springs Airport, 9.5 nm (17.7 km) SE. Retrieved 2017/12/16 02:35 UTC (0 seconds ago):

K54J 160235Z AUTO 36006KT 10SM BKN120 06/00 A3024 RMK AO2 T00611002

TAF (pilot weather forecast)

Closest forecast is Duke Field, 17.1 nm (31.6 km) SW. Retrieved 2017/12/16 02:04 UTC (0 seconds ago):

TAF KEGI 160202Z 1602/1708 01007KT 9999 FEW070 OVC110 QNH3020INS BECMG 1606/1607 03007KT 9999 SCT110 OVC200 QNH3019INS BECMG 1615/1616 07010KT 9999 FEW040 SCT100 OVC200 QNH3025INS BECMG 1703/1704 11008KT 9999 SCT040 BKN100 OVC200 QNH3023INS TX12/1619Z TN02/1612Z FCST BY USAF WX MET TECH